Time;durP1;ratioP1;P1;durP2;ratioP2;P2;SDS_P1;SDS_P2;PMS_P1;PMS_P2;Temp;Humidity;BMP_temperature;BMP_pressure;BME280_temperature;BME280_humidity;BME280_pressure;Samples;Min_cycle;Max_cycle;Signal;HPM_P1;HPM_P2
2023/01/25 00:00:06;;;;;;;5.72;2.00;;;;;;;1.13;97.66;95739.88;5102657;28;20688;-78
2023/01/25 00:02:33;;;;;;;3.28;1.73;;;;;;;1.04;97.80;95749.31;5102612;28;20206;-79
2023/01/25 00:05:00;;;;;;;2.97;1.77;;;;;;;0.91;98.46;95746.94;5109628;28;20267;-80
2023/01/25 00:07:27;;;;;;;2.42;2.03;;;;;;;0.92;100.00;95740.56;5110083;28;20202;-79
2023/01/25 00:09:54;;;;;;;4.00;2.00;;;;;;;1.10;100.00;95753.69;5110302;28;20225;-78
2023/01/25 00:12:22;;;;;;;4.57;2.60;;;;;;;0.96;100.00;95742.50;5109926;28;20238;-79
2023/01/25 00:14:49;;;;;;;2.53;1.88;;;;;;;0.94;100.00;95738.47;5110054;28;20198;-80
2023/01/25 00:17:15;;;;;;;6.78;2.75;;;;;;;1.04;100.00;95744.78;5110156;28;20216;-79
2023/01/25 00:19:42;;;;;;;4.10;2.28;;;;;;;1.17;100.00;95740.19;5109718;28;20243;-79
2023/01/25 00:22:09;;;;;;;4.10;2.47;;;;;;;1.20;100.00;95747.72;5095295;28;20205;-78
2023/01/25 00:24:36;;;;;;;1.58;0.82;;;;;;;0.95;100.00;95737.44;5096819;28;20258;-79
2023/01/25 00:27:03;;;;;;;3.47;2.35;;;;;;;0.94;100.00;95744.63;5110057;28;20269;-78
2023/01/25 00:29:31;;;;;;;2.03;1.55;;;;;;;0.95;100.00;95746.25;5109704;28;20802;-78
2023/01/25 00:32:28;;;;;;;4.88;2.63;;;;;;;0.94;100.00;95738.47;5108550;28;20243;-77
2023/01/25 00:34:58;;;;;;;0.90;0.90;;;;;;;0.81;100.00;95738.78;5109012;28;20316;-78
2023/01/25 00:37:29;;;;;;;4.85;2.72;;;;;;;0.64;100.00;95739.53;5109506;28;20699;-78
2023/01/25 00:39:56;;;;;;;4.22;1.83;;;;;;;0.69;100.00;95742.28;5109403;28;20610;-79
2023/01/25 00:42:23;;;;;;;1.88;1.38;;;;;;;0.70;100.00;95741.22;5109252;28;20258;-79
2023/01/25 00:44:51;;;;;;;3.55;1.73;;;;;;;0.70;100.00;95749.22;5109654;28;20251;-79
2023/01/25 00:47:18;;;;;;;7.13;2.97;;;;;;;0.71;100.00;95744.69;5109253;28;20718;-78
2023/01/25 00:49:46;;;;;;;2.53;1.80;;;;;;;0.77;100.00;95748.28;5109507;28;20286;-78
2023/01/25 00:52:13;;;;;;;5.10;3.30;;;;;;;0.83;100.00;95744.66;5109035;28;20255;-79
2023/01/25 00:54:40;;;;;;;4.85;2.15;;;;;;;0.82;100.00;95751.06;5109563;28;20266;-79
2023/01/25 00:57:07;;;;;;;4.53;2.70;;;;;;;0.96;100.00;95742.50;5106468;28;20640;-78
2023/01/25 00:59:34;;;;;;;1.40;1.30;;;;;;;1.02;100.00;95748.75;5109294;28;20201;-78
2023/01/25 01:02:03;;;;;;;1.17;1.08;;;;;;;1.09;100.00;95749.41;5109650;28;20198;-78
2023/01/25 01:04:30;;;;;;;2.35;1.83;;;;;;;0.75;99.45;95745.03;5109708;28;20661;-79
2023/01/25 01:06:57;;;;;;;2.60;1.95;;;;;;;0.69;100.00;95742.28;5109094;28;20695;-78
2023/01/25 01:09:24;;;;;;;5.03;2.03;;;;;;;0.75;100.00;95739.72;5108179;28;20229;-78
2023/01/25 01:11:51;;;;;;;3.35;2.00;;;;;;;0.73;100.00;95747.13;5109305;28;20274;-78
2023/01/25 01:14:18;;;;;;;3.30;1.88;;;;;;;0.68;100.00;95739.88;5108869;28;20202;-78
2023/01/25 01:16:45;;;;;;;4.32;2.42;;;;;;;0.84;100.00;95748.94;5108668;28;20549;-79
2023/01/25 01:19:13;;;;;;;2.65;1.90;;;;;;;0.78;100.00;95744.56;5108776;28;20294;-77
2023/01/25 01:21:40;;;;;;;4.00;2.42;;;;;;;0.73;100.00;95747.94;5108729;28;20201;-78
2023/01/25 01:24:08;;;;;;;4.05;2.25;;;;;;;0.77;99.90;95738.44;5108544;28;20665;-78
2023/01/25 01:26:35;;;;;;;4.10;1.92;;;;;;;0.76;99.39;95736.81;5109394;28;20409;-79
2023/01/25 01:29:01;;;;;;;3.38;1.60;;;;;;;0.81;99.29;95734.25;5108660;28;20229;-79
2023/01/25 01:31:28;;;;;;;4.32;2.00;;;;;;;0.77;99.54;95726.94;5108822;28;20208;-78
2023/01/25 01:33:57;;;;;;;4.60;2.42;;;;;;;0.79;99.62;95730.19;5108691;28;20205;-77
2023/01/25 01:36:27;;;;;;;2.10;1.38;;;;;;;0.88;99.45;95728.75;5108879;28;20707;-78
2023/01/25 01:38:54;;;;;;;1.02;1.00;;;;;;;0.99;99.44;95725.22;5108645;28;20194;-79
2023/01/25 01:41:21;;;;;;;5.50;2.20;;;;;;;1.10;98.76;95721.66;5108744;28;20756;-79
2023/01/25 01:43:48;;;;;;;2.60;2.22;;;;;;;1.09;97.70;95730.75;5112903;28;20255;-79
2023/01/25 01:46:21;;;;;;;2.47;1.90;;;;;;;1.20;97.64;95721.84;5113074;28;20606;-78
2023/01/25 01:48:51;;;;;;;5.03;2.45;;;;;;;1.17;97.34;95719.66;5112807;28;20284;-79
2023/01/25 01:51:23;;;;;;;2.42;1.55;;;;;;;0.99;97.39;95714.53;5113040;28;20609;-78
2023/01/25 01:53:55;;;;;;;4.60;1.40;;;;;;;0.91;97.42;95717.63;5112860;28;20729;-78
2023/01/25 01:56:28;;;;;;;3.75;1.52;;;;;;;0.73;98.29;95715.94;5112346;28;20250;-79
2023/01/25 01:58:57;;;;;;;3.67;1.98;;;;;;;0.61;98.97;95716.00;5112316;28;20664;-79
2023/01/25 02:01:24;;;;;;;3.53;2.28;;;;;;;0.80;99.71;95721.16;5112222;28;20201;-79
2023/01/25 02:03:52;;;;;;;6.68;1.98;;;;;;;0.75;99.48;95718.38;5111978;28;20206;-78
2023/01/25 02:06:27;;;;;;;4.97;2.08;;;;;;;0.82;99.47;95713.72;5108024;28;20252;-78
2023/01/25 02:08:57;;;;;;;6.82;2.70;;;;;;;0.87;99.29;95722.59;5104015;28;20202;-80
2023/01/25 02:11:25;;;;;;;3.67;2.25;;;;;;;0.80;99.59;95716.63;5111691;28;20210;-79
2023/01/25 02:13:53;;;;;;;3.88;2.03;;;;;;;0.96;99.99;95710.50;5112296;28;20705;-79
2023/01/25 02:16:25;;;;;;;2.85;1.63;;;;;;;0.96;99.59;95723.00;5112612;28;20198;-80
2023/01/25 02:18:53;;;;;;;4.85;2.63;;;;;;;0.98;99.65;95720.91;5111897;28;20205;-79
2023/01/25 02:21:21;;;;;;;5.53;2.28;;;;;;;1.14;99.51;95717.47;5112468;28;20258;-80
2023/01/25 02:23:54;;;;;;;4.82;1.73;;;;;;;1.28;99.64;95710.75;5112234;28;20659;-80
2023/01/25 02:26:23;;;;;;;2.17;0.82;;;;;;;1.25;99.06;95719.25;5111923;28;20212;-79
2023/01/25 02:28:54;;;;;;;2.22;1.17;;;;;;;1.03;98.02;95715.69;5111844;28;20300;-79
2023/01/25 02:31:21;;;;;;;5.57;2.42;;;;;;;0.93;98.75;95715.50;5111786;28;20201;-78
2023/01/25 02:33:48;;;;;;;0.60;0.60;;;;;;;0.98;98.77;95718.25;5111749;28;20197;-79
2023/01/25 02:36:24;;;;;;;3.30;2.08;;;;;;;1.13;98.76;95720.38;5111550;28;20241;-80
2023/01/25 02:38:56;;;;;;;2.03;1.17;;;;;;;0.99;98.42;95715.34;5111668;28;20205;-79
2023/01/25 02:41:32;;;;;;;3.08;1.45;;;;;;;0.92;97.96;95716.56;5111687;28;20339;-80
2023/01/25 02:44:00;;;;;;;1.60;0.98;;;;;;;0.80;98.11;95721.97;5112343;28;20280;-80
2023/01/25 02:46:30;;;;;;;1.35;1.10;;;;;;;0.85;97.72;95702.56;5112157;28;20197;-80
2023/01/25 02:48:58;;;;;;;2.33;1.20;;;;;;;0.91;97.64;95706.94;5112274;28;20755;-80
2023/01/25 02:51:26;;;;;;;3.03;1.13;;;;;;;0.91;97.79;95706.94;5111508;28;20630;-80
2023/01/25 02:53:54;;;;;;;2.53;1.55;;;;;;;0.91;98.10;95712.28;5110976;28;20263;-79
2023/01/25 02:56:20;;;;;;;5.72;1.88;;;;;;;0.92;97.74;95712.03;5111624;28;20194;-78
2023/01/25 02:58:49;;;;;;;2.50;1.30;;;;;;;1.01;97.80;95717.78;5111106;28;20205;-80
2023/01/25 03:01:16;;;;;;;2.03;1.25;;;;;;;0.81;98.02;95712.09;5111162;28;20718;-79
2023/01/25 03:03:43;;;;;;;1.17;1.10;;;;;;;0.79;98.02;95714.19;5111295;28;20202;-80
2023/01/25 03:06:10;;;;;;;4.03;1.70;;;;;;;0.68;98.50;95724.66;5111655;28;20216;-80
2023/01/25 03:08:37;;;;;;;1.02;0.93;;;;;;;0.75;98.54;95718.38;5111710;28;20217;-79
2023/01/25 03:11:06;;;;;;;1.70;1.48;;;;;;;0.93;99.20;95712.84;5111273;28;20610;-79
2023/01/25 03:13:36;;;;;;;2.30;1.10;;;;;;;0.99;98.14;95714.53;5111505;28;20669;-77
2023/01/25 03:16:06;;;;;;;1.58;1.13;;;;;;;0.98;98.43;95707.59;5111085;28;20564;-79
2023/01/25 03:18:33;;;;;;;1.67;1.15;;;;;;;0.97;98.11;95711.28;5111540;28;20258;-79
2023/01/25 03:21:08;;;;;;;1.02;0.98;;;;;;;0.86;98.30;95714.84;5111054;28;20206;-79
2023/01/25 03:23:35;;;;;;;1.92;1.42;;;;;;;0.84;99.11;95709.75;5110931;28;20205;-80
2023/01/25 03:26:10;;;;;;;2.75;1.55;;;;;;;0.77;98.65;95703.75;5111642;28;20213;-79
2023/01/25 03:28:38;;;;;;;6.82;3.40;;;;;;;0.71;98.40;95700.19;5110805;28;20201;-79
2023/01/25 03:31:07;;;;;;;2.03;1.33;;;;;;;0.88;99.16;95707.41;5110997;28;20282;-79
2023/01/25 03:33:33;;;;;;;6.57;2.08;;;;;;;0.96;98.52;95709.69;5110806;28;21008;-79
2023/01/25 03:36:01;;;;;;;1.95;1.17;;;;;;;0.97;98.11;95711.28;5111140;28;20229;-78
2023/01/25 03:38:28;;;;;;;1.85;1.05;;;;;;;0.80;98.19;95710.47;5111466;28;20356;-80
2023/01/25 03:40:55;;;;;;;4.97;1.75;;;;;;;0.72;98.34;95719.66;5110172;28;20190;-78
2023/01/25 03:43:21;;;;;;;2.88;1.60;;;;;;;0.69;98.64;95714.78;5110082;28;20197;-79
2023/01/25 03:45:52;;;;;;;2.63;1.42;;;;;;;0.74;98.99;95714.09;5110691;28;20578;-78
2023/01/25 03:48:21;;;;;;;5.38;2.13;;;;;;;0.67;98.91;95712.41;5110337;28;20204;-79
2023/01/25 03:50:52;;;;;;;2.70;1.55;;;;;;;0.62;99.38;95708.81;5100209;28;20230;-79
2023/01/25 03:53:28;;;;;;;2.58;1.33;;;;;;;0.67;99.64;95704.41;5107497;28;20205;-79
2023/01/25 03:55:57;;;;;;;2.58;1.80;;;;;;;0.64;99.52;95702.19;5110411;28;20288;-79
2023/01/25 03:58:23;;;;;;;1.02;0.75;;;;;;;0.73;100.00;95699.94;5110308;28;20194;-78
2023/01/25 04:00:51;;;;;;;2.60;1.15;;;;;;;0.82;99.96;95700.38;5109806;28;20731;-78
2023/01/25 04:03:20;;;;;;;2.58;1.65;;;;;;;1.02;99.24;95695.38;5110170;28;20239;-79
2023/01/25 04:05:48;;;;;;;1.13;0.70;;;;;;;1.07;97.86;95690.16;5109850;28;20212;-78
2023/01/25 04:08:15;;;;;;;1.58;1.27;;;;;;;1.02;97.89;95695.38;5110204;28;20206;-79
2023/01/25 04:10:41;;;;;;;2.30;1.30;;;;;;;1.04;96.91;95698.63;5109323;28;20796;-78
2023/01/25 04:13:08;;;;;;;2.25;1.00;;;;;;;1.04;97.10;95696.78;5110193;28;20748;-78
2023/01/25 04:15:35;;;;;;;2.08;1.50;;;;;;;1.10;97.44;95694.16;5109498;28;20206;-79
2023/01/25 04:18:02;;;;;;;2.38;1.45;;;;;;;0.84;97.19;95701.75;5109953;28;20623;-79
2023/01/25 04:20:29;;;;;;;0.82;0.68;;;;;;;0.71;97.81;95696.72;5109824;28;20595;-79
2023/01/25 04:22:57;;;;;;;1.17;1.08;;;;;;;0.52;98.58;95698.78;5109879;28;20772;-79
2023/01/25 04:25:24;;;;;;;3.47;1.95;;;;;;;0.58;98.96;95692.47;5110028;28;20574;-78
2023/01/25 04:27:51;;;;;;;3.25;2.38;;;;;;;0.80;99.23;95694.47;5109781;28;20590;-79
2023/01/25 04:30:18;;;;;;;2.03;1.50;;;;;;;0.93;98.82;95688.84;5109706;28;20332;-79
2023/01/25 04:32:44;;;;;;;1.63;1.23;;;;;;;0.93;98.26;95699.50;5109281;28;20202;-80
2023/01/25 04:35:14;;;;;;;5.45;1.88;;;;;;;0.84;97.72;95692.94;5108799;28;20241;-79
2023/01/25 04:37:41;;;;;;;1.33;1.10;;;;;;;0.93;97.84;95704.84;5109544;28;20236;-79
2023/01/25 04:40:10;;;;;;;3.70;1.80;;;;;;;0.92;97.51;95703.22;5109695;28;20202;-78
2023/01/25 04:42:37;;;;;;;3.10;1.40;;;;;;;0.89;97.17;95703.69;5109595;28;20201;-79
2023/01/25 04:45:04;;;;;;;1.45;0.98;;;;;;;0.89;97.36;95709.03;5109407;28;20251;-78
2023/01/25 04:47:31;;;;;;;2.63;1.33;;;;;;;0.92;96.16;95708.56;5109141;28;20694;-78
2023/01/25 04:49:58;;;;;;;3.42;1.80;;;;;;;0.78;96.41;95707.25;5109501;28;20221;-78
2023/01/25 04:52:24;;;;;;;3.08;2.00;;;;;;;0.87;96.87;95700.47;5109312;28;20202;-78
2023/01/25 04:54:51;;;;;;;1.52;1.10;;;;;;;0.66;95.71;95705.44;5110079;28;20193;-78
2023/01/25 04:57:19;;;;;;;1.63;0.77;;;;;;;0.74;94.93;95706.09;5110234;28;20201;-78
2023/01/25 04:59:46;;;;;;;3.97;1.67;;;;;;;0.82;96.13;95703.06;5105791;28;20197;-78
2023/01/25 05:02:13;;;;;;;4.93;1.20;;;;;;;0.65;94.78;95711.00;5105815;28;20194;-79
2023/01/25 05:04:40;;;;;;;1.88;1.17;;;;;;;0.57;94.72;95712.19;5106006;28;20246;-78
2023/01/25 05:07:07;;;;;;;2.42;1.05;;;;;;;0.49;95.32;95704.59;5100862;28;20210;-79
2023/01/25 05:09:34;;;;;;;2.03;1.20;;;;;;;0.51;96.09;95694.50;5104500;28;20277;-79
2023/01/25 05:12:01;;;;;;;6.10;3.10;;;;;;;0.70;95.82;95700.41;5108075;28;20221;-79
2023/01/25 05:14:29;;;;;;;4.90;2.70;;;;;;;0.66;95.30;95699.31;5107399;28;20191;-78
2023/01/25 05:16:57;;;;;;;5.72;2.95;;;;;;;0.62;94.79;95693.63;5108055;28;20231;-79
2023/01/25 05:19:24;;;;;;;4.38;2.67;;;;;;;0.58;94.23;95695.16;5105461;28;20687;-80
2023/01/25 05:22:00;;;;;;;1.35;0.60;;;;;;;0.43;94.70;95686.88;5109465;28;20243;-79
2023/01/25 05:24:28;;;;;;;1.02;0.93;;;;;;;0.42;94.57;95695.09;5109287;28;20197;-79
2023/01/25 05:26:59;;;;;;;2.33;1.58;;;;;;;0.38;94.60;95694.78;5113149;28;20262;-80
2023/01/25 05:29:26;;;;;;;0.82;0.80;;;;;;;0.51;94.94;95702.50;5099178;28;20193;-80
2023/01/25 05:31:57;;;;;;;2.40;1.25;;;;;;;0.41;94.32;95701.50;5112676;28;20229;-79
2023/01/25 05:34:24;;;;;;;0.50;0.50;;;;;;;0.60;94.65;95692.25;5112162;28;20270;-80
2023/01/25 05:36:54;;;;;;;1.83;1.30;;;;;;;0.55;94.38;95698.28;5111718;28;20304;-80
2023/01/25 05:39:21;;;;;;;3.50;2.35;;;;;;;0.61;93.86;95697.34;5112016;28;20255;-78
2023/01/25 05:41:48;;;;;;;1.55;0.88;;;;;;;0.68;93.45;95700.66;5112473;28;20202;-79
2023/01/25 05:44:15;;;;;;;1.45;0.63;;;;;;;0.82;93.83;95703.84;5113270;28;20201;-80
2023/01/25 05:46:42;;;;;;;1.38;1.08;;;;;;;0.86;93.11;95704.97;5113331;28;20999;-78
2023/01/25 05:49:10;;;;;;;1.13;0.93;;;;;;;0.65;92.51;95706.50;5112417;28;20206;-79
2023/01/25 05:51:42;;;;;;;2.80;1.05;;;;;;;0.81;92.76;95704.09;5108682;28;20661;-80
2023/01/25 05:54:13;;;;;;;0.90;0.70;;;;;;;0.79;92.44;95700.88;5103572;28;20306;-80
2023/01/25 05:56:40;;;;;;;2.25;0.80;;;;;;;0.80;92.72;95699.81;5112021;28;20680;-79
2023/01/25 05:59:07;;;;;;;3.97;1.42;;;;;;;0.80;92.68;95711.28;5112718;28;20209;-79
2023/01/25 06:01:33;;;;;;;1.98;0.85;;;;;;;0.61;93.50;95709.88;5112520;28;20629;-79
2023/01/25 06:04:00;;;;;;;0.90;0.90;;;;;;;0.84;93.86;95707.06;5113046;28;20205;-80
2023/01/25 06:06:28;;;;;;;1.35;0.88;;;;;;;0.58;93.65;95691.66;5112433;28;20201;-78
2023/01/25 06:08:55;;;;;;;5.43;1.83;;;;;;;0.79;94.52;95709.66;5113220;28;20205;-81
2023/01/25 06:11:23;;;;;;;2.85;1.33;;;;;;;0.93;94.05;95704.84;5113312;28;20229;-80
2023/01/25 06:13:51;;;;;;;2.53;1.63;;;;;;;0.71;93.22;95716.19;5113224;28;20213;-79
2023/01/25 06:16:19;;;;;;;2.70;1.75;;;;;;;0.71;93.60;95713.50;5112716;28;20683;-80
2023/01/25 06:18:46;;;;;;;3.45;1.92;;;;;;;0.73;93.78;95720.47;5112104;28;20198;-77
2023/01/25 06:21:13;;;;;;;11.13;3.80;;;;;;;0.67;94.14;95700.94;5112806;28;20201;-80
2023/01/25 06:23:41;;;;;;;2.83;1.50;;;;;;;0.69;93.90;95723.59;5112355;28;20205;-80
2023/01/25 06:26:11;;;;;;;5.97;1.90;;;;;;;0.83;94.23;95717.97;5098812;28;20546;-80
2023/01/25 06:28:39;;;;;;;2.45;2.00;;;;;;;0.96;94.18;95715.00;5112703;28;20201;-80
2023/01/25 06:31:07;;;;;;;1.52;0.80;;;;;;;1.11;93.35;95720.59;5111875;28;20240;-79
2023/01/25 06:33:35;;;;;;;2.53;1.85;;;;;;;1.07;92.84;95716.81;5112533;28;20228;-80
2023/01/25 06:36:03;;;;;;;2.83;1.67;;;;;;;0.96;92.87;95715.00;5111882;28;20711;-80
2023/01/25 06:38:31;;;;;;;2.55;1.23;;;;;;;0.79;93.64;95715.00;5113264;28;20197;-80
2023/01/25 06:41:03;;;;;;;2.67;1.13;;;;;;;0.74;93.45;95717.56;5113743;28;20189;-79
2023/01/25 06:43:31;;;;;;;1.42;1.02;;;;;;;0.64;94.12;95718.19;5112983;28;20629;-80
2023/01/25 06:45:59;;;;;;;2.00;1.52;;;;;;;0.76;93.52;95725.34;5112423;28;20251;-80
2023/01/25 06:48:26;;;;;;;2.63;1.45;;;;;;;0.65;93.05;95722.47;5111957;28;20209;-79
2023/01/25 06:50:58;;;;;;;2.63;1.35;;;;;;;0.55;93.00;95719.59;5111281;28;20275;-80
2023/01/25 06:53:26;;;;;;;2.58;2.05;;;;;;;0.32;93.83;95707.19;5112528;28;20197;-80
2023/01/25 06:56:00;;;;;;;4.43;2.20;;;;;;;0.37;95.18;95721.66;5113528;28;20288;-79
2023/01/25 06:58:29;;;;;;;1.98;1.63;;;;;;;0.55;95.02;95711.59;5113332;28;20205;-80
2023/01/25 07:01:01;;;;;;;11.15;5.00;;;;;;;0.47;94.71;95712.00;5113751;28;20224;-79
2023/01/25 07:03:28;;;;;;;3.53;1.83;;;;;;;0.53;94.94;95716.41;5099971;28;20909;-79
2023/01/25 07:05:58;;;;;;;5.72;2.55;;;;;;;0.64;95.13;95712.88;5111116;28;20664;-79
2023/01/25 07:08:25;;;;;;;7.13;3.25;;;;;;;0.58;94.68;95713.00;5110893;28;20297;-80
2023/01/25 07:10:56;;;;;;;4.47;2.65;;;;;;;0.81;95.50;95704.09;5110607;28;20229;-79
2023/01/25 07:13:23;;;;;;;3.47;1.13;;;;;;;0.66;94.81;95710.78;5110959;28;20725;-78
2023/01/25 07:15:56;;;;;;;1.52;1.42;;;;;;;0.73;95.19;95709.81;5110823;28;20657;-79
2023/01/25 07:18:23;;;;;;;2.28;1.42;;;;;;;0.82;95.62;95717.16;5110957;28;20258;-81
2023/01/25 07:20:51;;;;;;;2.13;1.30;;;;;;;0.81;94.60;95714.78;5111114;28;20202;-80
2023/01/25 07:23:18;;;;;;;1.48;1.17;;;;;;;0.69;95.11;95712.94;5112090;28;20820;-79
2023/01/25 07:25:45;;;;;;;3.20;1.85;;;;;;;0.73;94.85;95715.13;5111310;28;20254;-79
2023/01/25 07:28:13;;;;;;;6.90;2.80;;;;;;;0.82;94.93;95719.84;5110914;28;20201;-79
2023/01/25 07:30:40;;;;;;;8.25;5.25;;;;;;;0.96;94.87;95725.69;5110966;28;20326;-79
2023/01/25 07:33:08;;;;;;;8.52;5.22;;;;;;;0.95;94.59;95729.44;5111101;28;20200;-79
2023/01/25 07:35:35;;;;;;;12.02;7.03;;;;;;;0.98;93.83;95720.91;5110460;28;20244;-79
2023/01/25 07:38:02;;;;;;;13.32;7.55;;;;;;;0.93;93.88;95715.50;5110397;28;20201;-79
2023/01/25 07:40:29;;;;;;;13.32;7.30;;;;;;;1.01;94.39;95731.13;5109535;28;20748;-80
2023/01/25 07:42:55;;;;;;;9.18;5.60;;;;;;;1.17;94.17;95727.66;5110602;28;20202;-78
2023/01/25 07:45:29;;;;;;;9.57;5.63;;;;;;;1.19;94.48;95735.44;5110768;28;20209;-78
2023/01/25 07:47:56;;;;;;;10.05;5.80;;;;;;;1.09;94.09;95733.41;5110292;28;20297;-79
2023/01/25 07:50:25;;;;;;;3.08;1.83;;;;;;;1.03;93.79;95735.16;5096689;28;20198;-79
2023/01/25 07:52:52;;;;;;;6.22;3.30;;;;;;;1.02;94.63;95727.41;5096516;28;20234;-80
2023/01/25 07:55:19;;;;;;;2.67;2.00;;;;;;;1.04;94.85;95738.66;5097155;28;20303;-79
2023/01/25 07:57:46;;;;;;;3.80;2.35;;;;;;;1.17;94.76;95732.19;5110129;28;20644;-79
2023/01/25 08:00:13;;;;;;;3.90;2.50;;;;;;;1.47;94.96;95731.88;5110060;28;20194;-79
2023/01/25 08:02:40;;;;;;;3.50;2.47;;;;;;;1.44;93.34;95727.84;5110274;28;20202;-78
2023/01/25 08:05:08;;;;;;;8.20;4.22;;;;;;;1.49;93.59;95729.78;5110155;28;20205;-79
2023/01/25 08:07:36;;;;;;;2.97;2.22;;;;;;;1.54;93.64;95716.50;5109564;28;20307;-78
2023/01/25 08:10:02;;;;;;;6.65;2.88;;;;;;;1.43;93.56;95726.22;5109714;28;20251;-79
2023/01/25 08:12:29;;;;;;;4.47;3.00;;;;;;;1.41;93.86;95728.31;5109934;28;20240;-78
2023/01/25 08:14:56;;;;;;;4.50;2.38;;;;;;;1.12;94.31;95735.56;5110526;28;20217;-79
2023/01/25 08:17:23;;;;;;;3.97;2.60;;;;;;;1.29;94.18;95725.72;5110354;28;20198;-78
2023/01/25 08:19:50;;;;;;;3.70;2.72;;;;;;;1.35;94.86;95730.13;5110359;28;20197;-79
2023/01/25 08:22:16;;;;;;;3.80;2.35;;;;;;;1.18;94.04;95733.81;5109921;28;20737;-79
2023/01/25 08:24:44;;;;;;;4.22;2.47;;;;;;;1.10;95.60;95721.66;5109933;28;20205;-79
2023/01/25 08:27:11;;;;;;;2.10;1.58;;;;;;;1.02;95.10;95719.41;5109817;28;20255;-80
2023/01/25 08:29:38;;;;;;;5.32;3.08;;;;;;;0.92;95.40;95720.03;5110081;28;20205;-79
2023/01/25 08:32:06;;;;;;;5.18;2.80;;;;;;;0.96;95.35;95726.50;5109642;28;20653;-78
2023/01/25 08:34:33;;;;;;;2.15;1.73;;;;;;;0.97;96.19;95712.09;5109721;28;20282;-79
2023/01/25 08:37:00;;;;;;;5.93;2.33;;;;;;;1.08;95.89;95718.44;5109835;28;20274;-79
2023/01/25 08:39:27;;;;;;;3.08;1.80;;;;;;;1.19;96.71;95720.22;5109361;28;20213;-79
2023/01/25 08:41:55;;;;;;;5.20;2.72;;;;;;;1.24;96.48;95717.63;5103442;28;20663;-78
2023/01/25 08:44:24;;;;;;;6.32;2.35;;;;;;;1.08;95.69;95707.78;5102002;28;20282;-80
2023/01/25 08:46:51;;;;;;;3.40;2.38;;;;;;;1.11;95.99;95712.59;5108425;28;20773;-77
2023/01/25 08:49:18;;;;;;;6.65;3.03;;;;;;;0.95;96.76;95718.75;5109087;28;20605;-79
2023/01/25 08:51:45;;;;;;;6.30;2.47;;;;;;;0.96;97.73;95705.16;5094613;28;20256;-79
2023/01/25 08:54:12;;;;;;;5.18;2.95;;;;;;;0.78;97.33;95712.56;5108483;28;20272;-79
2023/01/25 08:56:40;;;;;;;3.00;2.22;;;;;;;0.77;98.21;95710.97;5107959;28;20193;-79
2023/01/25 08:59:10;;;;;;;4.05;2.00;;;;;;;1.06;98.76;95717.88;5109118;28;20237;-78
2023/01/25 09:01:37;;;;;;;4.97;2.90;;;;;;;0.98;97.81;95702.25;5109381;28;20197;-80
2023/01/25 09:04:04;;;;;;;4.32;3.03;;;;;;;1.34;97.62;95711.66;5109326;28;20198;-79
2023/01/25 09:06:31;;;;;;;4.68;2.97;;;;;;;1.36;96.44;95715.72;5109358;28;20208;-80
2023/01/25 09:08:59;;;;;;;4.10;2.92;;;;;;;1.35;97.13;95716.75;5109077;28;20265;-79
2023/01/25 09:11:26;;;;;;;4.10;2.80;;;;;;;1.17;96.50;95716.19;5108988;28;20621;-79
2023/01/25 09:13:53;;;;;;;4.38;2.67;;;;;;;1.27;97.12;95713.66;5108927;28;20255;-80
2023/01/25 09:16:28;;;;;;;5.65;2.30;;;;;;;1.34;96.86;95703.66;5108083;28;20234;-80
2023/01/25 09:18:58;;;;;;;3.70;3.05;;;;;;;1.31;97.14;95702.28;5108604;28;20664;-79
2023/01/25 09:21:24;;;;;;;4.63;3.20;;;;;;;1.20;97.19;95699.69;5109127;28;20197;-79
2023/01/25 09:23:52;;;;;;;3.58;2.70;;;;;;;1.36;96.93;95697.03;5109032;28;20664;-81
2023/01/25 09:26:19;;;;;;;6.15;3.42;;;;;;;1.39;97.31;95693.84;5108764;28;20598;-81
2023/01/25 09:28:47;;;;;;;4.60;2.95;;;;;;;1.36;97.07;95693.56;5109251;28;20198;-80
2023/01/25 09:31:14;;;;;;;5.35;3.42;;;;;;;1.35;97.15;95687.41;5109515;28;20281;-80
2023/01/25 09:33:43;;;;;;;6.10;3.75;;;;;;;1.42;97.44;95672.03;5109263;28;20206;-81
2023/01/25 09:36:10;;;;;;;3.90;1.83;;;;;;;1.51;97.32;95674.25;5109167;28;20229;-81
2023/01/25 09:38:37;;;;;;;5.68;2.40;;;;;;;1.43;97.07;95670.16;5109322;28;20202;-81
2023/01/25 09:41:17;;;;;;;7.47;3.22;;;;;;;1.38;97.48;95672.75;5109274;28;20213;-81
2023/01/25 09:44:03;;;;;;;4.95;3.05;;;;;;;1.58;97.69;95658.91;5108277;28;20200;-81
2023/01/25 09:46:41;;;;;;;7.30;2.35;;;;;;;1.73;97.13;95659.09;5108939;28;20603;-80
2023/01/25 09:49:22;;;;;;;5.40;3.30;;;;;;;1.77;97.71;95663.72;5110139;28;20296;-80
2023/01/25 09:52:16;;;;;;;3.15;1.92;;;;;;;1.61;96.19;95659.22;5111942;28;20229;-82
2023/01/25 09:54:47;;;;;;;4.97;2.80;;;;;;;1.56;96.69;95655.66;5109998;28;20205;-81
2023/01/25 09:57:17;;;;;;;10.02;4.55;;;;;;;1.53;97.21;95650.81;5111159;28;20186;-83
2023/01/25 09:59:47;;;;;;;6.93;3.80;;;;;;;1.67;97.05;95644.88;5110349;28;20225;-81
2023/01/25 10:02:29;;;;;;;3.60;2.80;;;;;;;1.49;96.34;95647.84;5108823;28;20202;-81
2023/01/25 10:05:04;;;;;;;5.43;3.33;;;;;;;1.58;96.89;95632.19;5112770;28;20201;-81
2023/01/25 10:07:44;;;;;;;8.95;3.97;;;;;;;1.85;97.40;95627.75;5113444;28;20201;-82
2023/01/25 10:10:19;;;;;;;7.72;3.00;;;;;;;1.94;95.65;95626.25;5092630;28;20449;-81
2023/01/25 10:12:46;;;;;;;6.13;2.83;;;;;;;1.98;94.42;95630.03;5108297;28;20305;-82
2023/01/25 10:15:20;;;;;;;8.93;3.05;;;;;;;1.90;93.84;95611.78;5114187;28;20209;-81
2023/01/25 10:17:58;;;;;;;5.32;3.33;;;;;;;1.80;93.68;95614.31;5112723;28;20201;-81
2023/01/25 10:20:35;;;;;;;3.40;2.08;;;;;;;1.87;93.73;95601.59;5112874;28;20262;-82
2023/01/25 10:23:35;;;;;;;6.47;2.63;;;;;;;1.97;94.13;95603.56;5113371;28;20205;-81
2023/01/25 10:26:10;;;;;;;8.98;3.20;;;;;;;2.22;93.14;95598.50;5110117;28;20197;-80
2023/01/25 10:28:42;;;;;;;7.43;2.70;;;;;;;2.20;92.01;95607.84;5112183;28;20843;-81
2023/01/25 10:31:18;;;;;;;2.50;1.85;;;;;;;2.31;91.64;95598.88;5098814;28;20668;-82
2023/01/25 10:33:47;;;;;;;5.05;2.55;;;;;;;2.23;91.09;95596.66;5112384;28;20225;-80
2023/01/25 10:36:17;;;;;;;6.13;3.38;;;;;;;2.15;90.62;95592.56;5112271;28;20230;-81
2023/01/25 10:38:45;;;;;;;3.53;2.75;;;;;;;2.32;91.93;95584.47;5112029;28;20279;-81
2023/01/25 10:41:17;;;;;;;4.75;2.72;;;;;;;2.73;91.23;95585.66;5111739;28;20212;-80
2023/01/25 10:43:44;;;;;;;12.65;3.35;;;;;;;2.52;87.57;95595.34;5111540;28;20742;-80
2023/01/25 10:46:21;;;;;;;6.20;3.22;;;;;;;2.33;87.78;95594.06;5111662;28;20898;-81
2023/01/25 10:48:48;;;;;;;3.72;2.88;;;;;;;2.44;88.74;95575.22;5112483;28;20254;-81
2023/01/25 10:51:31;;;;;;;2.53;1.70;;;;;;;2.31;87.79;95564.13;5111681;28;20204;-80
2023/01/25 10:54:03;;;;;;;5.78;1.95;;;;;;;2.45;88.83;95562.66;5111427;28;20229;-80
2023/01/25 10:56:35;;;;;;;3.15;1.90;;;;;;;2.61;86.82;95561.72;5111109;28;20645;-80
2023/01/25 10:59:17;;;;;;;3.83;1.77;;;;;;;2.83;87.30;95557.09;5101711;28;20209;-79
2023/01/25 11:01:47;;;;;;;1.80;1.10;;;;;;;2.76;85.53;95555.69;5111127;28;20266;-80
2023/01/25 11:04:32;;;;;;;1.77;1.38;;;;;;;2.78;86.86;95540.19;5111463;28;20198;-79
2023/01/25 11:07:01;;;;;;;3.78;2.25;;;;;;;2.71;85.33;95553.81;5099713;28;20201;-79
2023/01/25 11:09:37;;;;;;;6.38;2.47;;;;;;;2.60;84.74;95548.63;5110865;28;20193;-80
2023/01/25 11:12:07;;;;;;;3.35;2.55;;;;;;;2.77;86.40;95538.59;5111173;28;20221;-80
2023/01/25 11:14:34;;;;;;;1.90;1.35;;;;;;;2.76;86.32;95537.78;5109344;28;20566;-80
2023/01/25 11:17:03;;;;;;;2.25;1.85;;;;;;;2.75;84.96;95540.69;5110563;28;20205;-81
2023/01/25 11:19:34;;;;;;;2.80;2.05;;;;;;;3.00;84.88;95537.44;5111548;28;20296;-80
2023/01/25 11:22:07;;;;;;;2.67;1.67;;;;;;;3.16;83.30;95520.38;5111247;28;20201;-78
2023/01/25 11:24:35;;;;;;;2.42;1.00;;;;;;;2.97;83.27;95527.22;5097501;28;20206;-81
2023/01/25 11:27:14;;;;;;;0.73;0.73;;;;;;;2.64;83.71;95522.97;5110253;28;20205;-81
2023/01/25 11:29:41;;;;;;;2.50;2.30;;;;;;;2.65;83.16;95541.44;5101114;28;20644;-80
2023/01/25 11:32:19;;;;;;;3.13;2.65;;;;;;;2.68;83.89;95524.88;5105337;28;20225;-80
2023/01/25 11:34:46;;;;;;;3.08;2.17;;;;;;;2.72;84.31;95520.66;5110074;28;20756;-80
2023/01/25 11:37:42;;;;;;;3.17;1.83;;;;;;;3.01;84.50;95520.28;5110722;28;20258;-80
2023/01/25 11:40:21;;;;;;;3.60;2.28;;;;;;;3.10;82.18;95513.41;5101749;28;20688;-79
2023/01/25 11:42:59;;;;;;;2.45;1.55;;;;;;;2.70;82.97;95511.25;5110879;28;20254;-80
2023/01/25 11:46:01;;;;;;;2.03;1.63;;;;;;;2.78;82.99;95498.19;5110383;28;20197;-80
2023/01/25 11:48:50;;;;;;;1.75;1.20;;;;;;;2.89;82.45;95495.59;5110466;28;20237;-80
2023/01/25 11:51:25;;;;;;;3.30;2.28;;;;;;;2.65;82.37;95487.13;5096770;28;20455;-78